Time;durP1;ratioP1;P1;durP2;ratioP2;P2;SDS_P1;SDS_P2;PMS_P1;PMS_P2;Temp;Humidity;BMP_temperature;BMP_pressure;BME280_temperature;BME280_humidity;BME280_pressure;Samples;Min_cycle;Max_cycle;Signal;HPM_P1;HPM_P2
2022/12/07 00:01:35;;;;;;;6.50;1.50;;;;;;;2.55;100.00;101560.13;5066161;28;20294;-78
2022/12/07 00:04:04;;;;;;;11.90;2.17;;;;;;;2.60;100.00;101556.06;5049261;28;20595;-78
2022/12/07 00:06:34;;;;;;;8.18;2.00;;;;;;;2.67;100.00;101559.84;5025132;28;20059;-78
2022/12/07 00:09:03;;;;;;;15.27;2.43;;;;;;;2.72;100.00;101561.84;5037172;28;20052;-77
2022/12/07 00:11:32;;;;;;;14.90;2.35;;;;;;;2.76;100.00;101556.75;5062188;28;20341;-78
2022/12/07 00:14:04;;;;;;;10.20;2.17;;;;;;;2.79;100.00;101563.00;5072062;28;20059;-78
2022/12/07 00:16:33;;;;;;;6.68;1.60;;;;;;;2.82;100.00;101568.38;5068689;28;20048;-78
2022/12/07 00:19:01;;;;;;;8.57;1.80;;;;;;;2.86;100.00;101559.00;5071994;28;20048;-78
2022/12/07 00:21:32;;;;;;;6.07;1.48;;;;;;;2.90;100.00;101566.09;5057648;28;20040;-78
2022/12/07 00:24:00;;;;;;;3.70;1.10;;;;;;;2.95;100.00;101567.22;5042194;28;20415;-78
2022/12/07 00:26:34;;;;;;;7.43;1.60;;;;;;;2.99;100.00;101552.63;5064061;28;20074;-78
2022/12/07 00:29:11;;;;;;;5.55;1.40;;;;;;;3.02;100.00;101545.81;5066447;28;20044;-78
2022/12/07 00:31:38;;;;;;;3.85;1.23;;;;;;;3.09;100.00;101555.69;5046890;28;20045;-78
2022/12/07 00:34:11;;;;;;;6.80;1.33;;;;;;;3.12;100.00;101548.03;5065354;28;20158;-78
2022/12/07 00:36:38;;;;;;;7.40;1.38;;;;;;;3.16;100.00;101551.66;5054048;28;20052;-78
2022/12/07 00:39:06;;;;;;;6.85;1.23;;;;;;;3.16;100.00;101542.94;5033326;28;20060;-78
2022/12/07 00:41:33;;;;;;;5.18;1.52;;;;;;;3.16;100.00;101537.72;5070297;28;20064;-78
2022/12/07 00:44:00;;;;;;;3.38;1.08;;;;;;;3.15;100.00;101544.66;5049081;28;20041;-78
2022/12/07 00:46:29;;;;;;;5.70;1.70;;;;;;;3.15;100.00;101543.78;5069973;28;20057;-78
2022/12/07 00:48:56;;;;;;;3.17;1.38;;;;;;;3.15;100.00;101543.78;5054993;28;20041;-78
2022/12/07 00:51:25;;;;;;;7.95;1.77;;;;;;;3.15;100.00;101547.28;5069102;28;20037;-78
2022/12/07 00:53:53;;;;;;;5.13;1.35;;;;;;;3.15;100.00;101542.06;5072510;28;20047;-79
2022/12/07 00:56:26;;;;;;;8.43;1.63;;;;;;;3.15;100.00;101542.06;5041295;28;20041;-78
2022/12/07 00:58:56;;;;;;;7.78;1.60;;;;;;;3.13;100.00;101538.50;5071991;28;20071;-78
2022/12/07 01:01:26;;;;;;;8.23;2.15;;;;;;;3.13;100.00;101536.78;5063926;28;20054;-78
2022/12/07 01:03:53;;;;;;;8.88;1.55;;;;;;;3.15;100.00;101530.75;5072081;28;20052;-78
2022/12/07 01:06:22;;;;;;;8.52;1.40;;;;;;;3.16;100.00;101533.44;5057092;28;20063;-78
2022/12/07 01:08:50;;;;;;;16.63;1.65;;;;;;;3.20;100.00;101529.25;5062665;28;20049;-78
2022/12/07 01:11:20;;;;;;;8.52;1.90;;;;;;;3.25;100.00;101535.53;5040951;28;20048;-78
2022/12/07 01:13:52;;;;;;;10.23;2.08;;;;;;;3.31;100.00;101535.84;5021539;28;20083;-78
2022/12/07 01:16:21;;;;;;;9.45;1.80;;;;;;;3.34;100.00;101528.13;5063178;28;20544;-78
2022/12/07 01:18:51;;;;;;;14.30;2.63;;;;;;;3.40;100.00;101532.72;5071523;28;20048;-77
2022/12/07 01:21:21;;;;;;;6.53;1.30;;;;;;;3.42;100.00;101531.97;5050810;28;20041;-77
2022/12/07 01:23:49;;;;;;;11.38;1.80;;;;;;;3.45;100.00;101529.47;5071644;28;20045;-77
2022/12/07 01:26:21;;;;;;;11.93;1.55;;;;;;;3.46;100.00;101523.47;5026055;28;20064;-77
2022/12/07 01:28:48;;;;;;;5.57;1.35;;;;;;;3.48;100.00;101523.53;5054416;28;20044;-78
2022/12/07 01:31:18;;;;;;;9.07;1.63;;;;;;;3.48;100.00;101521.81;5064142;28;20051;-78
2022/12/07 01:33:48;;;;;;;9.43;2.20;;;;;;;3.44;100.00;101519.91;5077823;28;20056;-78
2022/12/07 01:36:22;;;;;;;4.03;1.40;;;;;;;3.44;100.00;101519.91;5075238;28;20055;-78
2022/12/07 01:38:52;;;;;;;6.43;1.60;;;;;;;3.43;100.00;101520.72;5070194;28;20055;-79
2022/12/07 01:41:20;;;;;;;10.65;2.00;;;;;;;3.40;100.00;101520.56;5043571;28;20258;-78
2022/12/07 01:44:08;;;;;;;9.48;1.40;;;;;;;3.40;100.00;101522.28;5054444;28;20059;-78
2022/12/07 01:46:36;;;;;;;8.95;1.60;;;;;;;3.38;100.00;101523.94;5051031;28;20056;-79
2022/12/07 01:49:08;;;;;;;4.85;1.40;;;;;;;3.36;100.00;101531.69;5013590;28;20585;-78
2022/12/07 01:51:38;;;;;;;6.22;1.10;;;;;;;3.36;100.00;101541.22;5057582;28;20076;-78
2022/12/07 01:54:06;;;;;;;6.75;1.50;;;;;;;3.34;100.00;101535.94;5049752;28;20044;-77
2022/12/07 01:56:33;;;;;;;7.15;1.48;;;;;;;3.36;100.00;101543.84;5070498;28;20049;-79
2022/12/07 01:59:01;;;;;;;5.22;1.23;;;;;;;3.39;100.00;101567.44;5027446;28;20063;-79
2022/12/07 02:01:30;;;;;;;6.40;1.33;;;;;;;3.48;100.00;101571.31;5035360;28;20045;-78
2022/12/07 02:03:58;;;;;;;7.60;1.85;;;;;;;3.53;100.00;101553.25;5055270;28;20045;-78
2022/12/07 02:06:26;;;;;;;8.70;2.05;;;;;;;3.56;100.00;101550.81;5069302;28;20040;-78
2022/12/07 02:08:54;;;;;;;3.70;1.30;;;;;;;3.56;100.00;101550.81;5066717;28;20048;-78
2022/12/07 02:11:21;;;;;;;5.22;1.38;;;;;;;3.55;100.00;101548.13;5056837;28;20037;-78
2022/12/07 02:13:49;;;;;;;5.03;1.25;;;;;;;3.51;100.00;101537.56;5046880;28;20045;-78
2022/12/07 02:16:37;;;;;;;6.72;1.45;;;;;;;3.48;100.00;101534.84;5057632;28;20066;-78
2022/12/07 02:19:42;;;;;;;4.80;1.20;;;;;;;3.43;100.00;101541.56;5067625;28;20052;-78
2022/12/07 02:22:38;;;;;;;6.40;2.03;;;;;;;3.38;100.00;101532.63;5073834;28;20048;-78
2022/12/07 02:25:36;;;;;;;8.20;1.50;;;;;;;3.33;100.00;101528.97;5020469;28;20060;-78
2022/12/07 02:28:13;;;;;;;4.78;1.15;;;;;;;3.28;100.00;101527.88;5062446;28;20055;-78
2022/12/07 02:30:46;;;;;;;8.63;1.63;;;;;;;3.23;100.00;101531.97;5042282;28;20056;-79
2022/12/07 02:33:21;;;;;;;7.55;1.30;;;;;;;3.19;100.00;101528.34;5040805;28;20055;-78
2022/12/07 02:35:57;;;;;;;8.48;1.85;;;;;;;3.17;100.00;101530.00;5049003;28;20048;-78
2022/12/07 02:38:59;;;;;;;4.80;1.40;;;;;;;3.15;100.00;101525.56;5053943;28;20068;-78
2022/12/07 02:41:33;;;;;;;5.63;1.25;;;;;;;3.13;100.00;101523.75;5069729;28;20035;-78
2022/12/07 02:44:04;;;;;;;11.90;2.00;;;;;;;3.11;100.00;101524.53;5053872;28;20056;-78
2022/12/07 02:46:37;;;;;;;6.28;1.30;;;;;;;3.10;100.00;101535.75;5060190;28;20045;-78
2022/12/07 02:49:06;;;;;;;6.50;1.30;;;;;;;3.11;100.00;101545.34;5067454;28;20055;-78
2022/12/07 02:51:39;;;;;;;15.82;2.20;;;;;;;3.11;100.00;101538.44;5056749;28;20551;-78
2022/12/07 02:54:15;;;;;;;11.38;1.95;;;;;;;3.12;100.00;101534.13;5054549;28;20051;-78
2022/12/07 02:57:04;;;;;;;6.78;1.40;;;;;;;3.15;100.00;101526.44;5075752;28;20049;-78
2022/12/07 03:00:07;;;;;;;2.25;1.00;;;;;;;3.20;100.00;101521.44;5018885;28;20090;-77
2022/12/07 03:03:03;;;;;;;7.78;0.90;;;;;;;3.21;100.00;101510.19;5004340;28;20129;-78
2022/12/07 03:05:50;;;;;;;3.03;1.13;;;;;;;3.23;100.00;101499.03;5062687;28;20080;-78
2022/12/07 03:08:23;;;;;;;9.15;1.08;;;;;;;3.24;100.00;101495.59;5071643;28;20033;-78
2022/12/07 03:10:56;;;;;;;4.95;0.95;;;;;;;3.26;100.00;101496.53;5057206;28;20060;-78
2022/12/07 03:13:32;;;;;;;5.63;0.90;;;;;;;3.26;100.00;101504.34;5070492;28;20063;-78
2022/12/07 03:16:17;;;;;;;2.30;0.82;;;;;;;3.27;100.00;101497.41;5044038;28;20064;-78
2022/12/07 03:18:56;;;;;;;3.95;0.80;;;;;;;3.25;100.00;101491.25;5056802;28;20052;-78
2022/12/07 03:21:44;;;;;;;3.83;1.08;;;;;;;3.22;100.00;101493.75;5046445;28;20060;-77
2022/12/07 03:24:21;;;;;;;5.93;1.02;;;;;;;3.20;100.00;101492.78;5071932;28;20051;-78
2022/12/07 03:27:00;;;;;;;5.18;1.20;;;;;;;3.17;100.00;101492.66;5074991;28;20402;-79
2022/12/07 03:29:40;;;;;;;5.45;0.98;;;;;;;3.13;100.00;101495.09;5054749;28;20036;-78
2022/12/07 03:32:33;;;;;;;9.10;1.25;;;;;;;3.12;100.00;101489.84;5048442;28;20040;-77
2022/12/07 03:35:27;;;;;;;3.58;1.30;;;;;;;3.10;100.00;101496.69;5074116;28;20053;-78
2022/12/07 03:38:03;;;;;;;4.20;1.38;;;;;;;3.05;100.00;101493.88;5065607;28;20053;-78
2022/12/07 03:40:37;;;;;;;6.25;1.20;;;;;;;3.02;100.00;101496.34;5068276;28;20044;-78
2022/12/07 03:43:05;;;;;;;4.90;1.30;;;;;;;3.01;100.00;101491.97;5072478;28;20047;-78
2022/12/07 03:45:53;;;;;;;7.70;1.30;;;;;;;2.99;100.00;101492.75;5044527;28;20099;-77
2022/12/07 03:48:28;;;;;;;11.88;1.92;;;;;;;3.00;100.00;101490.19;5051233;28;20049;-78
2022/12/07 03:51:08;;;;;;;5.38;1.20;;;;;;;3.02;100.00;101487.66;5050985;28;20063;-79
2022/12/07 03:54:13;;;;;;;5.10;1.20;;;;;;;3.05;100.00;101480.88;5055944;28;20048;-78
2022/12/07 03:56:44;;;;;;;12.25;1.98;;;;;;;3.09;100.00;101495.81;5068356;28;20044;-78
2022/12/07 03:59:15;;;;;;;5.63;1.10;;;;;;;3.12;100.00;101490.75;5070627;28;20041;-78
2022/12/07 04:01:44;;;;;;;10.73;1.38;;;;;;;3.13;100.00;101483.81;5046320;28;20033;-78
2022/12/07 04:04:11;;;;;;;3.75;1.33;;;;;;;3.13;100.00;101476.00;5071960;28;20044;-78
2022/12/07 04:06:39;;;;;;;6.75;1.20;;;;;;;3.12;100.00;101477.72;5054276;28;20048;-78
2022/12/07 04:09:06;;;;;;;6.03;1.02;;;;;;;3.11;100.00;101486.34;5055213;28;20048;-78
2022/12/07 04:11:33;;;;;;;4.80;1.13;;;;;;;3.09;100.00;101474.09;5067682;28;20045;-78
2022/12/07 04:14:19;;;;;;;5.85;1.85;;;;;;;3.08;100.00;101483.63;5038912;28;20056;-78
2022/12/07 04:16:51;;;;;;;4.80;0.90;;;;;;;3.06;100.00;101497.38;5024612;28;20044;-78
2022/12/07 04:19:21;;;;;;;4.45;0.90;;;;;;;3.03;100.00;101485.13;5072085;28;20055;-78
2022/12/07 04:21:48;;;;;;;1.38;0.80;;;;;;;3.02;100.00;101488.53;5059706;28;20035;-78
2022/12/07 04:24:16;;;;;;;7.03;1.10;;;;;;;3.02;100.00;101492.88;5068707;28;20115;-77
2022/12/07 04:26:46;;;;;;;7.50;1.13;;;;;;;3.01;100.00;101501.50;5072765;28;20400;-77
2022/12/07 04:29:15;;;;;;;7.43;1.20;;;;;;;3.00;100.00;101500.59;5022825;28;20055;-77
2022/12/07 04:31:43;;;;;;;3.78;1.00;;;;;;;3.00;100.00;101505.81;5071716;28;20047;-78
2022/12/07 04:34:11;;;;;;;6.90;1.50;;;;;;;3.01;100.00;101507.59;5042301;28;20048;-78
2022/12/07 04:36:39;;;;;;;4.80;1.45;;;;;;;3.02;100.00;101503.28;5062562;28;20060;-78
2022/12/07 04:39:13;;;;;;;10.27;1.67;;;;;;;3.04;100.00;101509.44;5078625;28;20045;-78
2022/12/07 04:41:40;;;;;;;15.85;2.17;;;;;;;3.07;100.00;101499.19;5041591;28;20048;-78
2022/12/07 04:44:08;;;;;;;10.50;1.95;;;;;;;3.11;100.00;101501.97;5035908;28;20056;-78
2022/12/07 04:46:35;;;;;;;5.07;1.58;;;;;;;3.17;100.00;101500.47;5055006;28;20051;-78
2022/12/07 04:49:03;;;;;;;4.60;1.70;;;;;;;3.21;100.00;101512.78;5042579;28;20409;-78
2022/12/07 04:51:30;;;;;;;5.82;1.40;;;;;;;3.24;100.00;101492.09;5071472;28;20055;-78
2022/12/07 04:53:58;;;;;;;5.38;1.23;;;;;;;3.26;100.00;101493.06;5047970;28;20044;-78
2022/12/07 04:56:26;;;;;;;4.22;1.13;;;;;;;3.25;100.00;101492.16;5064672;28;20052;-78
2022/12/07 04:58:54;;;;;;;4.13;1.50;;;;;;;3.23;100.00;101483.41;5059406;28;20075;-77
2022/12/07 05:01:23;;;;;;;9.40;1.30;;;;;;;3.20;100.00;101483.25;5040904;28;20056;-78
2022/12/07 05:03:50;;;;;;;3.17;1.40;;;;;;;3.17;100.00;101477.03;5067365;28;20045;-78
2022/12/07 05:06:18;;;;;;;3.85;1.20;;;;;;;3.15;100.00;101478.66;5018181;28;20057;-78
2022/12/07 05:08:46;;;;;;;6.30;1.25;;;;;;;3.10;100.00;101470.63;5030468;28;20045;-78
2022/12/07 05:11:37;;;;;;;4.82;1.00;;;;;;;3.06;100.00;101482.66;5075379;28;20041;-79
2022/12/07 05:14:16;;;;;;;1.77;0.90;;;;;;;3.00;100.00;101474.56;5044003;28;20056;-78
2022/12/07 05:16:45;;;;;;;5.75;1.20;;;;;;;2.95;100.00;101476.09;5071543;28;20060;-78
2022/12/07 05:19:13;;;;;;;2.22;1.02;;;;;;;2.92;100.00;101460.31;5052110;28;20041;-78
2022/12/07 05:21:41;;;;;;;5.32;1.20;;;;;;;2.88;100.00;101461.03;5028091;28;20047;-78
2022/12/07 05:24:11;;;;;;;5.13;1.10;;;;;;;2.86;100.00;101462.66;5057650;28;20667;-78
2022/12/07 05:26:38;;;;;;;4.53;1.75;;;;;;;2.82;100.00;101459.03;5072150;28;20056;-78
2022/12/07 05:29:06;;;;;;;8.07;1.50;;;;;;;2.81;100.00;101456.38;5037447;28;20036;-78
2022/12/07 05:31:33;;;;;;;6.80;1.27;;;;;;;2.79;100.00;101453.69;5053178;28;20067;-78
2022/12/07 05:34:01;;;;;;;8.35;1.20;;;;;;;2.80;100.00;101462.38;5039514;28;20048;-78
2022/12/07 05:36:30;;;;;;;4.05;1.05;;;;;;;2.80;100.00;101459.78;5049574;28;20056;-78
2022/12/07 05:38:58;;;;;;;8.23;1.50;;;;;;;2.83;100.00;101460.81;5046526;28;20048;-78
2022/12/07 05:44:11;;;;;;;4.90;1.25;;;;;;;2.90;100.00;101460.25;5043650;28;20040;-78
2022/12/07 05:46:39;;;;;;;4.68;1.20;;;;;;;2.91;100.00;101456.84;5065747;28;20044;-77
2022/12/07 05:49:06;;;;;;;9.52;1.67;;;;;;;2.90;100.00;101461.97;5040818;28;20067;-78
2022/12/07 05:51:34;;;;;;;6.15;1.17;;;;;;;2.90;100.00;101461.97;5009235;28;20040;-79
2022/12/07 05:54:01;;;;;;;4.75;1.45;;;;;;;2.85;100.00;101459.16;5037926;28;20409;-77
2022/12/07 05:56:28;;;;;;;7.60;1.55;;;;;;;2.82;100.00;101463.38;5047057;28;20416;-79
2022/12/07 06:01:42;;;;;;;6.07;1.80;;;;;;;2.68;100.00;101462.72;5068878;28;20071;-79
2022/12/07 06:04:09;;;;;;;5.43;1.38;;;;;;;2.62;100.00;101465.06;5051503;28;20033;-78
2022/12/07 06:06:37;;;;;;;10.80;2.10;;;;;;;2.58;100.00;101461.41;5021734;28;20439;-79
2022/12/07 06:09:04;;;;;;;12.40;1.52;;;;;;;2.56;100.00;101481.28;5071386;28;20040;-78
2022/12/07 06:14:18;;;;;;;8.43;1.80;;;;;;;2.58;100.00;101484.84;5071082;28;20039;-77
2022/12/07 06:16:45;;;;;;;8.05;1.52;;;;;;;2.59;100.00;101478.81;5064009;28;20045;-78
2022/12/07 06:19:13;;;;;;;6.03;2.10;;;;;;;2.63;100.00;101479.88;5032312;28;20048;-77
2022/12/07 06:21:41;;;;;;;12.27;1.92;;;;;;;2.65;100.00;101481.69;5069763;28;20060;-79
2022/12/07 06:24:11;;;;;;;6.78;2.20;;;;;;;2.69;100.00;101472.31;5020616;28;20051;-77
2022/12/07 06:26:39;;;;;;;5.10;1.42;;;;;;;2.71;100.00;101471.56;5068085;28;20048;-78
2022/12/07 06:29:06;;;;;;;12.43;2.35;;;;;;;2.73;100.00;101472.53;5074427;28;20044;-78
2022/12/07 06:31:35;;;;;;;7.20;2.00;;;;;;;2.71;100.00;101468.97;5069472;28;20497;-77
2022/12/07 06:34:11;;;;;;;13.45;2.00;;;;;;;2.69;100.00;101467.13;5036213;28;20040;-77
2022/12/07 06:36:39;;;;;;;7.22;1.77;;;;;;;2.66;100.00;101460.03;5056379;28;20608;-77
2022/12/07 06:39:08;;;;;;;9.23;1.50;;;;;;;2.65;100.00;101466.09;5033676;28;20095;-77
2022/12/07 06:41:37;;;;;;;7.55;2.10;;;;;;;2.62;100.00;101471.13;5057947;28;20497;-78
2022/12/07 06:44:06;;;;;;;9.98;1.83;;;;;;;2.60;100.00;101462.38;5064802;28;20041;-77
2022/12/07 06:46:35;;;;;;;6.32;1.35;;;;;;;2.58;100.00;101474.44;5067003;28;20044;-77
2022/12/07 06:49:04;;;;;;;11.25;1.95;;;;;;;2.56;100.00;101476.06;5052096;28;20052;-78
2022/12/07 06:51:32;;;;;;;10.23;1.75;;;;;;;2.55;100.00;101463.88;5070377;28;20055;-78
2022/12/07 06:54:00;;;;;;;9.35;2.20;;;;;;;2.54;100.00;101464.72;5025444;28;20041;-77
2022/12/07 06:56:28;;;;;;;11.63;2.03;;;;;;;2.50;100.00;101458.47;5064022;28;20047;-78
2022/12/07 06:58:55;;;;;;;9.48;2.45;;;;;;;2.47;100.00;101468.72;5049382;28;20064;-77
2022/12/07 07:01:23;;;;;;;7.68;2.28;;;;;;;2.43;100.00;101472.00;5058298;28;20053;-79
2022/12/07 07:03:50;;;;;;;11.85;1.92;;;;;;;2.40;100.00;101473.56;5070255;28;20532;-78
2022/12/07 07:06:17;;;;;;;8.50;1.77;;;;;;;2.34;100.00;101480.31;5047616;28;20041;-78
2022/12/07 07:08:45;;;;;;;9.88;1.60;;;;;;;2.29;100.00;101479.19;5048897;28;20040;-78
2022/12/07 07:11:12;;;;;;;5.80;1.60;;;;;;;2.25;100.00;101478.94;5062498;28;20421;-78
2022/12/07 07:13:40;;;;;;;8.63;2.40;;;;;;;2.20;100.00;101472.66;5024741;28;20044;-78
2022/12/07 07:16:07;;;;;;;7.57;1.60;;;;;;;2.13;100.00;101472.34;5069982;28;20048;-78
2022/12/07 07:18:35;;;;;;;6.28;1.20;;;;;;;2.07;100.00;101482.47;5052947;28;20063;-78
2022/12/07 07:21:03;;;;;;;7.45;2.22;;;;;;;2.02;100.00;101475.25;5074106;28;20059;-82
2022/12/07 07:23:31;;;;;;;11.68;2.33;;;;;;;1.97;100.00;101485.47;5056988;28;20055;-85
2022/12/07 07:25:58;;;;;;;9.93;1.75;;;;;;;1.92;100.00;101474.81;5047075;28;20040;-82
2022/12/07 07:28:26;;;;;;;13.50;2.17;;;;;;;1.87;100.00;101480.63;5029253;28;20070;-82
2022/12/07 07:30:53;;;;;;;8.70;1.90;;;;;;;1.84;100.00;101481.38;5059165;28;20061;-83
2022/12/07 07:33:20;;;;;;;11.93;1.95;;;;;;;1.82;100.00;101490.78;5033178;28;20048;-83
2022/12/07 07:35:48;;;;;;;6.82;1.95;;;;;;;1.81;100.00;101483.81;5047404;28;20421;-84
2022/12/07 07:38:15;;;;;;;6.40;1.98;;;;;;;1.80;100.00;101497.63;5041646;28;20059;-83
2022/12/07 07:40:42;;;;;;;10.48;2.13;;;;;;;1.78;100.00;101488.88;5026309;28;20056;-83
2022/12/07 07:43:10;;;;;;;17.65;2.35;;;;;;;1.79;100.00;101494.94;5059894;28;20044;-82
2022/12/07 07:45:37;;;;;;;9.05;2.15;;;;;;;1.79;100.00;101484.56;5072542;28;20060;-82
2022/12/07 07:48:05;;;;;;;8.60;1.83;;;;;;;1.80;100.00;101479.44;5054478;28;20056;-82
2022/12/07 07:50:32;;;;;;;6.10;1.65;;;;;;;1.87;100.00;101485.81;5042782;28;20053;-83
2022/12/07 07:52:59;;;;;;;8.55;2.35;;;;;;;1.93;100.00;101493.94;5031769;28;20504;-83
2022/12/07 07:55:27;;;;;;;11.50;1.55;;;;;;;2.02;100.00;101489.16;5027917;28;20059;-83
2022/12/07 07:57:54;;;;;;;9.57;2.10;;;;;;;2.09;100.00;101488.63;5082425;28;20048;-82
2022/12/07 08:00:22;;;;;;;12.98;3.28;;;;;;;2.16;100.00;101489.84;5051820;28;20049;-83
2022/12/07 08:02:49;;;;;;;7.65;1.98;;;;;;;2.21;100.00;101490.03;5038089;28;20052;-83
2022/12/07 08:05:17;;;;;;;10.70;2.05;;;;;;;2.22;100.00;101490.13;5055863;28;20052;-82
2022/12/07 08:07:44;;;;;;;8.85;2.30;;;;;;;2.25;100.00;101482.47;5066880;28;20045;-82
2022/12/07 08:10:13;;;;;;;11.00;2.25;;;;;;;2.29;100.00;101480.91;5055071;28;20045;-83
2022/12/07 08:13:25;;;;;;;14.25;2.75;;;;;;;2.30;100.00;101488.75;5033534;28;20056;-82
2022/12/07 08:15:33;;;;;;;11.25;1.98;;;;;;;2.30;100.00;101483.56;5054649;28;20064;-82
2022/12/07 08:18:00;;;;;;;8.63;2.45;;;;;;;2.31;100.00;101480.16;5065129;28;20047;-81
2022/12/07 08:20:30;;;;;;;9.80;1.95;;;;;;;2.34;100.00;101487.19;5051518;28;20055;-82
2022/12/07 08:22:58;;;;;;;7.13;1.92;;;;;;;2.37;100.00;101487.34;5061109;28;20413;-82
2022/12/07 08:25:26;;;;;;;10.57;2.00;;;;;;;2.44;100.00;101497.22;5044933;28;20056;-82
2022/12/07 08:27:53;;;;;;;16.08;2.05;;;;;;;2.48;100.00;101485.25;5043297;28;20048;-85
2022/12/07 08:30:21;;;;;;;8.45;2.25;;;;;;;2.56;100.00;101485.59;5056179;28;20055;-81
2022/12/07 08:32:49;;;;;;;8.10;2.13;;;;;;;2.60;100.00;101488.41;5018367;28;20441;-81
2022/12/07 08:35:16;;;;;;;6.82;2.00;;;;;;;2.66;100.00;101488.66;5022097;28;20066;-83
2022/12/07 08:37:44;;;;;;;16.15;2.38;;;;;;;2.72;100.00;101501.97;5056532;28;20047;-83
2022/12/07 08:40:15;;;;;;;10.33;2.20;;;;;;;2.78;100.00;101523.88;5027995;28;20048;-84
2022/12/07 08:42:44;;;;;;;7.75;1.80;;;;;;;2.82;100.00;101524.13;5042063;28;20033;-83
2022/12/07 08:45:14;;;;;;;5.20;1.60;;;;;;;2.87;100.00;101529.50;5024270;28;20051;-82
2022/12/07 08:47:48;;;;;;;6.80;1.42;;;;;;;2.91;100.00;101521.00;5040298;28;20053;-82
2022/12/07 08:50:16;;;;;;;5.90;1.30;;;;;;;2.92;100.00;101515.88;5030002;28;20494;-82
2022/12/07 08:52:54;;;;;;;9.18;1.75;;;;;;;2.94;100.00;101518.56;5033151;28;20048;-82
2022/12/07 08:55:22;;;;;;;3.60;1.00;;;;;;;2.95;100.00;101483.00;5049893;28;20056;-83
2022/12/07 08:57:51;;;;;;;2.33;1.00;;;;;;;3.01;100.00;101486.78;4999270;28;20053;-83
2022/12/07 09:00:18;;;;;;;6.80;1.13;;;;;;;3.09;100.00;101474.97;5035388;28;20072;-83
2022/12/07 09:02:46;;;;;;;4.75;1.05;;;;;;;3.20;100.00;101490.19;5022143;28;20057;-82
2022/12/07 09:05:14;;;;;;;3.60;1.13;;;;;;;3.28;100.00;101479.25;5036250;28;20049;-81
2022/12/07 09:07:46;;;;;;;4.95;1.00;;;;;;;3.37;100.00;101478.78;5023721;28;20053;-84
2022/12/07 09:10:13;;;;;;;3.30;1.25;;;;;;;3.44;100.00;101474.69;5037842;28;20521;-84
2022/12/07 09:12:40;;;;;;;5.80;1.20;;;;;;;3.52;100.00;101478.53;5015296;28;20502;-83
2022/12/07 09:15:08;;;;;;;4.07;1.20;;;;;;;3.63;100.00;101478.97;5034494;28;20541;-83
2022/12/07 09:17:36;;;;;;;4.18;1.23;;;;;;;3.70;100.00;101481.00;5030040;28;20045;-83
2022/12/07 09:20:05;;;;;;;5.10;1.13;;;;;;;3.75;100.00;101476.00;5034450;28;20120;-82
2022/12/07 09:22:33;;;;;;;5.05;1.30;;;;;;;3.81;100.00;101482.31;5011095;28;20052;-83
2022/12/07 09:25:01;;;;;;;6.78;1.73;;;;;;;3.88;100.00;101470.44;5027384;28;20189;-83
2022/12/07 09:27:28;;;;;;;5.95;1.40;;;;;;;3.94;100.00;101475.91;5036730;28;20057;-82
2022/12/07 09:29:57;;;;;;;10.32;1.85;;;;;;;3.99;100.00;101478.69;5021703;28;20038;-82
2022/12/07 09:32:24;;;;;;;4.40;1.65;;;;;;;4.06;100.00;101491.13;5030636;28;20045;-83
2022/12/07 09:34:53;;;;;;;3.95;1.23;;;;;;;4.10;100.00;101490.44;5016004;28;20033;-83
2022/12/07 09:37:21;;;;;;;8.70;1.42;;;;;;;4.14;100.00;101505.41;5024102;28;20049;-82
2022/12/07 09:39:48;;;;;;;6.97;1.40;;;;;;;4.15;100.00;101509.78;5041879;28;20054;-84
2022/12/07 09:42:34;;;;;;;6.20;1.30;;;;;;;4.12;100.00;101521.78;5047088;28;20061;-83
2022/12/07 09:45:05;;;;;;;7.78;1.95;;;;;;;4.06;100.00;101506.78;5025710;28;20037;-84
2022/12/07 09:47:33;;;;;;;4.85;1.83;;;;;;;4.00;100.00;101494.41;5052099;28;20051;-82
2022/12/07 09:50:12;;;;;;;2.90;1.20;;;;;;;3.98;100.00;101497.78;5032185;28;20056;-83
2022/12/07 09:52:40;;;;;;;4.65;1.10;;;;;;;3.99;100.00;101503.06;5045326;28;20045;-82
2022/12/07 09:55:13;;;;;;;7.78;1.25;;;;;;;4.02;100.00;101503.16;5048860;28;20037;-82
2022/12/07 09:57:42;;;;;;;11.85;1.73;;;;;;;4.05;100.00;101499.81;5068560;28;20041;-82
2022/12/07 10:00:16;;;;;;;5.35;1.50;;;;;;;4.08;100.00;101499.91;5040762;28;20048;-83
2022/12/07 10:03:02;;;;;;;7.90;1.20;;;;;;;4.09;100.00;101501.72;5058501;28;20044;-81
2022/12/07 10:05:38;;;;;;;5.45;1.23;;;;;;;4.11;100.00;101489.63;5066261;28;20059;-82
2022/12/07 10:08:10;;;;;;;5.88;1.20;;;;;;;4.15;100.00;101501.94;5049168;28;20040;-82
2022/12/07 10:10:39;;;;;;;7.30;1.45;;;;;;;4.22;100.00;101497.88;5040684;28;20052;-81
2022/12/07 10:13:13;;;;;;;10.00;1.40;;;;;;;4.26;100.00;101505.88;5076268;28;20044;-82
2022/12/07 10:15:46;;;;;;;6.82;1.38;;;;;;;4.33;100.00;101499.19;5037015;28;20044;-81
2022/12/07 10:18:27;;;;;;;7.15;1.40;;;;;;;4.36;100.00;101501.00;5057030;28;20776;-84
2022/12/07 10:21:16;;;;;;;5.25;1.20;;;;;;;4.40;100.00;101505.50;5053980;28;20049;-81
2022/12/07 10:24:16;;;;;;;6.63;1.40;;;;;;;4.43;100.00;101509.13;5062059;28;20425;-80
2022/12/07 10:26:46;;;;;;;2.33;1.20;;;;;;;4.45;100.00;101502.25;5044723;28;20714;-82
2022/12/07 10:29:16;;;;;;;4.20;1.50;;;;;;;4.45;100.00;101497.03;5069467;28;20317;-83
2022/12/07 10:31:46;;;;;;;5.60;1.30;;;;;;;4.45;100.00;101501.38;5019559;28;20300;-82
2022/12/07 10:34:31;;;;;;;6.47;1.35;;;;;;;4.44;100.00;101491.75;5057196;28;20079;-82
2022/12/07 10:37:15;;;;;;;4.88;1.50;;;;;;;4.45;100.00;101486.59;5068018;28;20060;-83
2022/12/07 10:39:50;;;;;;;4.38;1.52;;;;;;;4.48;100.00;101486.72;5042283;28;20041;-84
2022/12/07 10:42:21;;;;;;;5.43;1.45;;;;;;;4.52;100.00;101484.22;5059081;28;20041;-83
2022/12/07 10:45:05;;;;;;;8.65;1.65;;;;;;;4.53;100.00;101479.06;5056541;28;20618;-83
2022/12/07 10:47:55;;;;;;;4.63;1.58;;;;;;;4.58;100.00;101479.25;5057022;28;20053;-82
2022/12/07 10:50:28;;;;;;;5.97;1.25;;;;;;;4.61;100.00;101474.13;5014203;28;20045;-82
2022/12/07 10:53:23;;;;;;;4.97;1.38;;;;;;;4.65;100.00;101476.00;5021690;28;20053;-83
2022/12/07 10:55:57;;;;;;;4.40;1.10;;;;;;;4.65;100.00;101470.78;5030261;28;20073;-82
2022/12/07 10:59:02;;;;;;;6.00;1.77;;;;;;;4.69;100.00;101470.97;5028648;28;20487;-80
2022/12/07 11:02:02;;;;;;;4.05;1.00;;;;;;;4.69;100.00;101465.75;5005438;28;20049;-80
2022/12/07 11:04:49;;;;;;;2.83;1.10;;;;;;;4.73;100.00;101458.94;5033940;28;20059;-83
2022/12/07 11:07:22;;;;;;;4.22;1.20;;;;;;;4.80;100.00;101455.72;5011308;28;20052;-83
2022/12/07 11:10:12;;;;;;;6.35;1.30;;;;;;;4.85;100.00;101446.31;5020403;28;20053;-82
2022/12/07 11:12:39;;;;;;;2.28;1.10;;;;;;;4.92;100.00;101441.31;5023996;28;20053;-82
2022/12/07 11:15:17;;;;;;;7.30;1.48;;;;;;;4.96;100.00;101435.38;5030510;28;20038;-81
2022/12/07 11:18:11;;;;;;;5.13;1.63;;;;;;;5.00;100.00;101432.91;5006760;28;20064;-81
2022/12/07 11:20:56;;;;;;;3.20;1.25;;;;;;;5.03;100.00;101437.38;5030584;28;20053;-82
2022/12/07 11:23:29;;;;;;;5.43;1.17;;;;;;;5.05;100.00;101433.09;5024831;28;20093;-80
2022/12/07 11:26:31;;;;;;;6.40;1.10;;;;;;;5.03;100.00;101432.16;5030039;28;20053;-82
2022/12/07 11:29:30;;;;;;;7.22;1.40;;;;;;;5.04;100.00;101424.34;5034610;28;20060;-81
2022/12/07 11:32:07;;;;;;;2.85;1.10;;;;;;;5.07;100.00;101421.84;5019582;28;20045;-82
2022/12/07 11:34:56;;;;;;;6.22;1.13;;;;;;;5.08;100.00;101417.50;5043948;28;20060;-83
2022/12/07 11:37:31;;;;;;;4.18;1.48;;;;;;;5.10;100.00;101414.94;5031087;28;20670;-82
2022/12/07 11:40:09;;;;;;;3.10;1.45;;;;;;;5.16;100.00;101409.91;5019353;28;20053;-82
2022/12/07 11:42:49;;;;;;;2.78;1.30;;;;;;;5.22;100.00;101397.97;5014449;28;20065;-83
2022/12/07 11:45:17;;;;;;;;;;;;;;;5.28;100.00;101398.16;5041948;28;20057;-83
2022/12/07 11:47:54;;;;;;;3.45;1.15;;;;;;;5.34;100.00;101397.47;5017158;28;20362;-83
2022/12/07 11:50:24;;;;;;;2.55;1.40;;;;;;;5.38;100.00;101401.09;5009377;28;20159;-83
2022/12/07 11:53:16;;;;;;;4.35;1.63;;;;;;;5.37;100.00;101409.75;5035390;28;20041;-83
2022/12/07 11:56:02;;;;;;;6.82;1.35;;;;;;;5.32;100.00;101403.50;5027729;28;20057;-84
2022/12/07 11:59:06;;;;;;;3.92;0.95;;;;;;;5.22;100.00;101395.34;5024562;28;20057;-84